Time;durP1;ratioP1;P1;durP2;ratioP2;P2;SDS_P1;SDS_P2;PMS_P1;PMS_P2;Temp;Humidity;BMP_temperature;BMP_pressure;BME280_temperature;BME280_humidity;BME280_pressure;Samples;Min_cycle;Max_cycle;Signal;HPM_P1;HPM_P2
2022/09/01 00:00:53;;;;;;;14.27;12.80;;;;;;;;;;4899761;29;20208;-86
2022/09/01 00:03:22;;;;;;;14.65;13.13;;;11.10;1.00;;;;;;4891193;29;20747;-87
2022/09/01 00:05:53;;;;;;;15.27;13.65;;;11.20;1.00;;;;;;4894434;29;20234;-86
2022/09/01 00:08:21;;;;;;;14.70;13.18;;;11.00;99.90;;;;;;4899375;29;20206;-86
2022/09/01 00:10:49;;;;;;;13.70;12.30;;;;;;;;;;4899847;29;20195;-88
2022/09/01 00:13:19;;;;;;;14.30;12.85;;;;;;;;;;4899492;29;20198;-86
2022/09/01 00:15:49;;;;;;;14.00;12.63;;;;;;;;;;4899366;29;20197;-85
2022/09/01 00:18:16;;;;;;;13.30;12.05;;;;;;;;;;4899130;29;20205;-87
2022/09/01 00:20:43;;;;;;;12.30;11.23;;;;;;;;;;4898774;29;20209;-87
2022/09/01 00:23:11;;;;;;;11.77;10.82;;;;;;;;;;4886043;29;20198;-87
2022/09/01 00:25:38;;;;;;;10.23;9.45;;;;;;;;;;4899156;29;20293;-87
2022/09/01 00:28:06;;;;;;;9.82;9.10;;;;;;;;;;4899382;29;20194;-89
2022/09/01 00:30:35;;;;;;;10.10;9.38;;;;;;;;;;4899140;29;20194;-88
2022/09/01 00:33:02;;;;;;;9.13;8.50;;;;;;;;;;4892673;29;20210;-87
2022/09/01 00:35:29;;;;;;;11.52;10.60;;;;;;;;;;4887933;29;20274;-86
2022/09/01 00:37:57;;;;;;;11.82;10.85;;;10.60;1.00;;;;;;4883818;29;20198;-85
2022/09/01 00:40:24;;;;;;;12.38;11.30;;;10.70;1.00;;;;;;4880294;29;20199;-88
2022/09/01 00:42:52;;;;;;;13.00;11.82;;;10.50;1.00;;;;;;4880190;29;20202;-90
2022/09/01 00:45:20;;;;;;;12.77;11.63;;;10.50;1.00;;;;;;4880046;29;20711;-87
2022/09/01 00:47:49;;;;;;;13.35;12.10;;;10.50;1.00;;;;;;4880085;29;20199;-88
2022/09/01 00:50:19;;;;;;;14.20;12.82;;;10.40;1.00;;;;;;4879454;29;20202;-87
2022/09/01 00:52:49;;;;;;;14.82;13.30;;;10.50;1.00;;;;;;4879558;29;20202;-87
2022/09/01 00:55:23;;;;;;;14.32;12.85;;;10.60;1.00;;;;;;4880867;29;20557;-89
2022/09/01 00:57:50;;;;;;;14.38;12.90;;;13.40;99.90;;;;;;4890691;29;20191;-87
2022/09/01 01:00:22;;;;;;;14.73;13.15;;;10.20;99.00;;;;;;4879698;29;20210;-86
2022/09/01 01:02:54;;;;;;;15.32;13.32;;;10.30;1.00;;;;;;4879563;29;20198;-89
2022/09/01 01:05:26;;;;;;;16.15;13.77;;;10.30;1.00;;;;;;4879466;29;20222;-85
2022/09/01 01:07:55;;;;;;;15.57;13.50;;;10.30;6.30;;;;;;4891791;29;20278;-87
2022/09/01 01:10:25;;;;;;;15.27;13.43;;;10.30;58.50;;;;;;4879960;29;20203;-87
2022/09/01 01:12:52;;;;;;;14.20;12.77;;;10.30;1.00;;;;;;4879032;29;20230;-86
2022/09/01 01:15:20;;;;;;;15.25;13.60;;;10.20;1.00;;;;;;4879732;29;20199;-87
2022/09/01 01:17:47;;;;;;;16.52;14.13;;;10.20;1.00;;;;;;4892878;29;20199;-87
2022/09/01 01:23:10;;;;;;;15.93;13.90;;;10.10;97.20;;;;;;4892589;29;20286;-88
2022/09/01 01:25:43;;;;;;;15.48;13.68;;;10.10;96.10;;;;;;4879912;29;20236;-87
2022/09/01 01:28:14;;;;;;;14.52;12.95;;;10.10;99.90;;;;;;4879887;29;20214;-86
2022/09/01 01:30:44;;;;;;;15.77;13.98;;;10.10;99.90;;;;;;4890670;29;20738;-88
2022/09/01 01:33:12;;;;;;;15.07;13.45;;;10.10;25.60;;;;;;4880615;29;20199;-88
2022/09/01 01:35:40;;;;;;;15.30;13.52;;;10.10;22.30;;;;;;4879190;29;20202;-91
2022/09/01 01:38:07;;;;;;;15.80;13.85;;;10.00;6.80;;;;;;4894529;29;20659;-88
2022/09/01 01:40:36;;;;;;;14.85;13.27;;;10.00;58.30;;;;;;4897970;29;20201;-89
2022/09/01 01:43:05;;;;;;;15.98;14.02;;;10.00;1.00;;;;;;4883905;29;20206;-87
2022/09/01 01:45:32;;;;;;;14.82;13.25;;;10.00;1.00;;;;;;4877969;29;20711;-87
2022/09/01 01:48:00;;;;;;;17.55;14.70;;;10.00;1.00;;;;;;4879167;29;20206;-87
2022/09/01 01:50:34;;;;;;;19.27;14.48;;;10.00;1.00;;;;;;4892016;29;20585;-88
2022/09/01 01:53:02;;;;;;;21.40;15.27;;;10.00;46.00;;;;;;4878709;29;20586;-89
2022/09/01 01:55:29;;;;;;;17.38;14.07;;;10.00;1.00;;;;;;4891967;29;20205;-87
2022/09/01 01:57:57;;;;;;;18.45;14.57;;;10.00;1.00;;;;;;4879316;29;20206;-87
2022/09/01 02:00:27;;;;;;;16.85;13.73;;;10.00;11.50;;;;;;4879072;29;20260;-87
2022/09/01 02:02:54;;;;;;;17.58;14.27;;;10.00;1.00;;;;;;4878997;29;20203;-91
2022/09/01 02:05:24;;;;;;;18.13;14.57;;;10.00;1.00;;;;;;4891957;29;20232;-87
2022/09/01 02:07:55;;;;;;;17.50;14.18;;;10.00;1.00;;;;;;4878573;29;20614;-87
2022/09/01 02:10:28;;;;;;;16.48;13.60;;;10.00;1.00;;;;;;4891684;29;20229;-88
2022/09/01 02:13:03;;;;;;;17.67;14.48;;;10.00;21.20;;;;;;4878809;29;20199;-90
2022/09/01 02:15:37;;;;;;;16.30;13.90;;;10.00;99.90;;;;;;4878933;29;20202;-90
2022/09/01 02:18:04;;;;;;;16.17;13.80;;;10.00;99.90;;;;;;4878444;29;20198;-89
2022/09/01 02:20:31;;;;;;;16.38;13.88;;;10.00;80.30;;;;;;4891647;29;20209;-87
2022/09/01 02:22:59;;;;;;;16.20;14.00;;;10.00;99.90;;;;;;4878915;29;20218;-89
2022/09/01 02:25:26;;;;;;;16.83;14.40;;;10.00;99.90;;;;;;4878779;29;20254;-87
2022/09/01 02:27:54;;;;;;;15.65;13.65;;;10.00;99.90;;;;;;4865730;29;20195;-87
2022/09/01 02:30:25;;;;;;;16.15;13.95;;;10.00;99.90;;;;;;4878694;29;20203;-87
2022/09/01 02:32:53;;;;;;;15.75;13.70;;;10.00;99.90;;;;;;4878622;29;20207;-87
2022/09/01 02:35:22;;;;;;;15.07;13.48;;;10.00;99.90;;;;;;4878685;29;20209;-89
2022/09/01 02:37:54;;;;;;;14.82;13.23;;;10.00;99.90;;;;;;4878459;29;20233;-86
2022/09/01 02:40:21;;;;;;;17.05;14.30;;;10.00;99.90;;;;;;4878428;29;20680;-87
2022/09/01 02:42:51;;;;;;;15.52;13.73;;;10.00;99.90;;;;;;4878240;29;20262;-87
2022/09/01 02:45:19;;;;;;;16.80;14.30;;;10.00;99.90;;;;;;4870225;29;20256;-90
2022/09/01 02:47:47;;;;;;;16.00;13.90;;;10.00;99.90;;;;;;4886604;29;20209;-89
2022/09/01 02:50:18;;;;;;;16.90;14.40;;;10.00;99.90;;;;;;4882299;29;20210;-87
2022/09/01 02:52:47;;;;;;;16.23;14.00;;;10.00;99.90;;;;;;4887280;29;20262;-87
2022/09/01 02:55:19;;;;;;;15.13;13.52;;;10.00;99.90;;;;;;4881639;29;20626;-89
2022/09/01 02:57:47;;;;;;;17.25;14.40;;;10.00;99.90;;;;;;4890445;29;20205;-87
2022/09/01 03:00:21;;;;;;;16.83;14.23;;;9.90;99.90;;;;;;4882390;29;20297;-87
2022/09/01 03:02:52;;;;;;;14.18;12.77;;;9.90;99.90;;;;;;4882418;29;20313;-87
2022/09/01 03:05:24;;;;;;;14.38;12.93;;;9.80;99.90;;;;;;4881869;29;20214;-86
2022/09/01 03:07:56;;;;;;;15.05;13.50;;;9.80;99.90;;;;;;4882035;29;20198;-87
2022/09/01 03:10:31;;;;;;;15.57;13.85;;;9.80;99.90;;;;;;4881772;29;20247;-89
2022/09/01 03:13:00;;;;;;;17.00;14.07;;;9.80;99.90;;;;;;4879313;29;20190;-89
2022/09/01 03:15:28;;;;;;;15.20;13.57;;;9.80;99.90;;;;;;4881226;29;20202;-87
2022/09/01 03:17:59;;;;;;;15.57;13.38;;;9.80;99.90;;;;;;4892710;29;20651;-90
2022/09/01 03:20:32;;;;;;;19.00;14.75;;;9.70;99.90;;;;;;4886149;29;20213;-86
2022/09/01 03:23:00;;;;;;;18.65;14.50;;;9.70;99.90;;;;;;4885513;29;20198;-88
2022/09/01 03:25:28;;;;;;;20.38;15.20;;;9.60;99.90;;;;;;4883729;29;20341;-86
2022/09/01 03:28:00;;;;;;;17.67;14.43;;;9.60;99.90;;;;;;4899826;29;20265;-87
2022/09/01 03:30:28;;;;;;;17.83;14.30;;;9.60;99.90;;;;;;4879572;29;20214;-87
2022/09/01 03:32:56;;;;;;;18.58;14.70;;;9.50;99.90;;;;;;4881995;29;20251;-89
2022/09/01 03:35:24;;;;;;;18.42;14.60;;;9.50;99.90;;;;;;4881889;29;20686;-86
2022/09/01 03:37:53;;;;;;;15.48;13.73;;;9.50;99.90;;;;;;4881640;29;20194;-86
2022/09/01 03:40:21;;;;;;;14.10;12.68;;;9.40;99.90;;;;;;4880992;29;20281;-87
2022/09/01 03:42:48;;;;;;;13.23;11.95;;;9.40;99.90;;;;;;4881759;29;20203;-88
2022/09/01 03:45:17;;;;;;;13.70;12.35;;;9.40;99.90;;;;;;4899222;29;20222;-87
2022/09/01 03:47:46;;;;;;;14.10;12.68;;;9.40;1.00;;;;;;4888178;29;20206;-87
2022/09/01 03:50:19;;;;;;;15.10;13.60;;;9.40;99.90;;;;;;4893860;29;20202;-87
2022/09/01 03:52:48;;;;;;;13.85;12.55;;;9.40;99.90;;;;;;4891473;29;20199;-85
2022/09/01 03:55:22;;;;;;;13.75;12.48;;;9.40;1.00;;;;;;4893178;29;20570;-85
2022/09/01 03:57:49;;;;;;;13.43;12.20;;;9.40;1.00;;;;;;4899779;29;20341;-85
2022/09/01 04:00:19;;;;;;;13.98;12.68;;;9.40;1.00;;;;;;4895881;29;20213;-87
2022/09/01 04:02:49;;;;;;;12.65;11.55;;;9.30;1.00;;;;;;4899446;29;20285;-85
2022/09/01 04:05:17;;;;;;;12.68;11.57;;;;;;;;;;4899640;29;20230;-86
2022/09/01 04:07:45;;;;;;;13.15;11.98;;;9.20;1.00;;;;;;4874664;29;20281;-87
2022/09/01 04:10:13;;;;;;;12.43;11.35;;;9.20;1.00;;;;;;4896767;29;20194;-86
2022/09/01 04:12:41;;;;;;;11.60;10.65;;;9.20;1.00;;;;;;4895750;29;20202;-88
2022/09/01 04:15:09;;;;;;;10.00;9.23;;;9.20;1.00;;;;;;4897193;29;20747;-89
2022/09/01 04:20:22;;;;;;;11.77;10.85;;;9.10;1.00;;;;;;4899102;29;20205;-85
2022/09/01 04:22:50;;;;;;;9.73;9.02;;;9.20;1.00;;;;;;4891296;29;20190;-89
2022/09/01 04:25:21;;;;;;;10.70;9.88;;;9.10;1.00;;;;;;4880720;29;20243;-90
2022/09/01 04:27:53;;;;;;;9.40;8.70;;;9.10;1.00;;;;;;4882146;29;20656;-89
2022/09/01 04:30:23;;;;;;;9.50;8.80;;;9.10;1.00;;;;;;4887589;29;20198;-87
2022/09/01 04:32:50;;;;;;;8.70;8.10;;;9.10;1.00;;;;;;4888541;29;20285;-87
2022/09/01 04:35:27;;;;;;;7.88;7.32;;;9.10;1.00;;;;;;4894345;29;20210;-89
2022/09/01 04:37:54;;;;;;;10.68;9.88;;;9.10;1.00;;;;;;4889757;29;20243;-92
2022/09/01 04:40:22;;;;;;;12.65;11.55;;;9.20;1.00;;;;;;4892458;29;20434;-91
2022/09/01 04:42:50;;;;;;;4.05;3.88;;;9.20;1.00;;;;;;4883360;29;20632;-87
2022/09/01 04:45:21;;;;;;;9.07;8.45;;;9.30;1.00;;;;;;4893330;29;20227;-87
2022/09/01 04:47:48;;;;;;;4.65;4.40;;;9.30;1.00;;;;;;4877207;29;20191;-90
2022/09/01 04:50:16;;;;;;;5.93;5.55;;;9.30;7.30;;;;;;4882499;29;20202;-88
2022/09/01 04:52:43;;;;;;;3.88;3.70;;;9.40;99.90;;;;;;4882046;29;20199;-89
2022/09/01 04:55:16;;;;;;;2.25;2.17;;;9.50;50.00;;;;;;4866294;29;20748;-87
2022/09/01 04:57:46;;;;;;;2.00;1.95;;;9.60;8.20;;;;;;4871389;29;20199;-90
2022/09/01 05:00:22;;;;;;;2.60;2.55;;;9.70;1.00;;;;;;4874895;29;20194;-90
2022/09/01 05:02:52;;;;;;;;;;;9.80;99.90;;;;;;4862346;29;20232;-88
2022/09/01 05:05:21;;;;;;;12.73;11.60;;;10.30;99.90;;;;;;4876791;29;20421;-89
2022/09/01 05:07:54;;;;;;;23.90;16.42;;;11.40;99.90;;;;;;4875315;29;20202;-94
2022/09/01 05:10:28;;;;;;;21.30;15.80;;;12.60;99.90;;;;;;4903006;29;20217;-92
2022/09/01 05:13:00;;;;;;;21.67;15.77;;;13.90;1.00;;;;;;4896295;29;20193;-92
2022/09/01 05:15:29;;;;;;;30.40;19.13;;;15.20;1.00;;;;;;4870029;29;20202;-86
2022/09/01 05:18:01;;;;;;;49.33;24.23;;;16.30;99.90;;;;;;4879296;29;20214;-89
2022/09/01 05:20:30;;;;;;;58.80;26.30;;;17.40;1.00;;;;;;4880008;29;20206;-92
2022/09/01 05:23:00;;;;;;;;;;;18.30;1.00;;;;;;4880444;29;20242;-89
2022/09/01 05:25:29;;;;;;;86.85;30.25;;;19.00;99.90;;;;;;4880375;29;20058;-88
2022/09/01 05:27:57;;;;;;;;;;;19.60;1.00;;;;;;4871853;29;20276;-89
2022/09/01 05:30:33;;;;;;;86.50;30.20;;;20.30;99.90;;;;;;4866183;29;20536;-92
2022/09/01 05:33:01;;;;;;;90.20;30.85;;;20.90;1.00;;;;;;4869825;29;20019;-89
2022/09/01 05:35:32;;;;;;;;;;;21.60;1.00;;;;;;4878100;29;20281;-92
2022/09/01 05:38:09;;;;;;;91.60;30.83;;;22.20;99.90;;;;;;4894167;29;20057;-93
2022/09/01 05:40:52;;;;;;;95.03;31.13;;;22.80;99.90;;;;;;4902277;29;20101;-90
2022/09/01 05:43:19;;;;;;;90.43;30.52;;;23.20;99.90;;;;;;4897236;29;20188;-86
2022/09/01 05:46:02;;;;;;;92.90;30.85;;;23.60;1.00;;;;;;4875087;29;20234;-88
2022/09/01 05:52:33;;;;;;;;;;;;;;;;;;;;;
2022/09/01 06:01:42;;;;;;;90.00;30.55;;;25.30;1.00;;;;;;4809922;29;20211;-88
2022/09/01 06:04:28;;;;;;;83.90;30.38;;;25.50;1.00;;;;;;4899606;29;20254;-87
2022/09/01 06:06:55;;;;;;;93.50;31.17;;;25.80;1.00;;;;;;4887051;29;20681;-89
2022/09/01 06:09:28;;;;;;;87.75;30.25;;;25.90;1.00;;;;;;4883826;29;20268;-89
2022/09/01 06:11:55;;;;;;;87.32;30.27;;;26.10;1.00;;;;;;4857727;29;20663;-85
2022/09/01 06:14:35;;;;;;;;;;;26.20;1.00;;;;;;4881815;29;20049;-91
2022/09/01 06:17:42;;;;;;;;;;;;;;;;;;;;;
2022/09/01 06:20:48;;;;;;;139.63;35.53;;;27.00;1.00;;;;;;4880611;29;20087;-87
2022/09/01 06:23:30;;;;;;;151.43;36.28;;;27.50;1.00;;;;;;4887516;29;20187;-93
2022/09/01 06:27:02;;;;;;;;;;;;;;;;;;;;;
2022/09/01 06:29:34;;;;;;;156.70;36.55;;;28.50;1.00;;;;;;4845366;29;20204;-93
2022/09/01 06:32:16;;;;;;;117.20;27.08;;;28.70;1.00;;;;;;4848511;29;20307;-89
2022/09/01 06:34:53;;;;;;;161.52;37.05;;;29.00;1.00;;;;;;4866059;29;20261;-94
2022/09/01 06:40:24;;;;;;;574.03;516.45;;;29.90;1.00;;;;;;4889695;29;20191;-89
2022/09/01 06:43:06;;;;;;;677.03;474.42;;;30.10;1.00;;;;;;4885636;29;20195;-88
2022/09/01 06:45:48;;;;;;;874.72;792.72;;;30.40;1.00;;;;;;4892726;29;20198;-87
2022/09/01 06:48:45;;;;;;;908.63;822.85;;;30.50;1.00;;;;;;4899863;29;20211;-87
2022/09/01 06:51:51;;;;;;;643.85;521.22;;;30.50;1.00;;;;;;4882425;29;20209;-89
2022/09/01 06:54:45;;;;;;;;;;;;;;;;;;;;;
2022/09/01 07:00:41;;;;;;;621.25;434.33;;;30.80;1.00;;;;;;4883724;29;20195;-93
2022/09/01 07:03:10;;;;;;;615.55;442.38;;;31.10;1.00;;;;;;4878589;29;20207;-92
2022/09/01 07:05:43;;;;;;;623.08;439.80;;;31.20;1.00;;;;;;4884437;29;20199;-93
2022/09/01 07:08:18;;;;;;;38.67;11.57;;;31.10;1.00;;;;;;4883170;29;20214;-89
2022/09/01 07:10:46;;;;;;;4.97;4.50;;;31.20;1.00;;;;;;4882226;29;20203;-89
2022/09/01 07:13:21;;;;;;;5.95;5.30;;;31.20;1.00;;;;;;4894695;29;20206;-91
2022/09/01 07:15:50;;;;;;;5.95;5.35;;;31.10;1.00;;;;;;4890372;29;20296;-86
2022/09/01 07:18:19;;;;;;;7.93;5.15;;;31.10;1.00;;;;;;4899987;29;20202;-87
2022/09/01 07:21:06;;;;;;;27.95;22.20;;;31.00;1.00;;;;;;4922988;29;20267;-92
2022/09/01 07:23:42;;;;;;;27.48;24.98;;;30.80;1.00;;;;;;4905284;29;20667;-91
2022/09/01 07:26:24;;;;;;;21.75;19.77;;;30.70;1.00;;;;;;4904562;29;20211;-88
2022/09/01 07:29:02;;;;;;;21.52;19.48;;;30.40;1.00;;;;;;4910604;29;20206;-89
2022/09/01 07:31:54;;;;;;;23.35;21.20;;;30.10;1.00;;;;;;4922915;29;20190;-91
2022/09/01 07:34:22;;;;;;;21.63;19.50;;;29.80;1.00;;;;;;4915204;29;20231;-92
2022/09/01 07:36:55;;;;;;;21.08;19.10;;;29.60;1.00;;;;;;4922542;29;20229;-92
2022/09/01 07:39:34;;;;;;;19.27;17.50;;;29.50;1.00;;;;;;4914730;29;20208;-95
2022/09/01 07:42:08;;;;;;;18.75;16.92;;;29.50;1.00;;;;;;4890571;29;20248;-86
2022/09/01 07:44:37;;;;;;;17.88;15.77;;;29.70;1.00;;;;;;4880856;29;20652;-90
2022/09/01 07:47:08;;;;;;;17.00;15.30;;;30.00;1.00;;;;;;4880946;29;20264;-91
2022/09/01 07:49:36;;;;;;;14.10;12.65;;;30.10;1.00;;;;;;4869229;29;20210;-86
2022/09/01 07:52:04;;;;;;;25.25;23.60;;;30.40;1.00;;;;;;4879977;29;20195;-88
2022/09/01 07:54:34;;;;;;;24.38;22.73;;;30.60;1.00;;;;;;4881283;29;20235;-85
2022/09/01 07:57:02;;;;;;;31.55;29.60;;;30.50;1.00;;;;;;4884377;29;20564;-87
2022/09/01 07:59:30;;;;;;;36.35;34.17;;;30.30;1.00;;;;;;4890238;29;20203;-86
2022/09/01 08:01:57;;;;;;;30.88;28.90;;;30.40;1.00;;;;;;4882983;29;20210;-90
2022/09/01 08:04:24;;;;;;;27.45;25.70;;;30.70;1.00;;;;;;4899579;29;20202;-85
2022/09/01 08:06:51;;;;;;;33.53;31.45;;;30.70;1.00;;;;;;4885455;29;20233;-86
2022/09/01 08:09:18;;;;;;;42.90;40.30;;;31.10;1.00;;;;;;4880419;29;20227;-86
2022/09/01 08:11:47;;;;;;;41.42;39.03;;;31.30;1.00;;;;;;4888834;29;20194;-90
2022/09/01 08:14:14;;;;;;;33.53;31.55;;;31.80;1.00;;;;;;4899022;29;20194;-86
2022/09/01 08:16:41;;;;;;;24.83;23.35;;;32.50;1.00;;;;;;4899108;29;20226;-88
2022/09/01 08:19:09;;;;;;;27.58;25.90;;;33.30;1.00;;;;;;4893920;29;20200;-90
2022/09/01 08:24:18;;;;;;;26.75;25.15;;;33.20;1.00;;;;;;4905197;29;20217;-89
2022/09/01 08:26:47;;;;;;;27.38;25.75;;;33.40;1.00;;;;;;4898574;29;20667;-90
2022/09/01 08:29:14;;;;;;;24.30;22.83;;;33.30;1.00;;;;;;4898517;29;20209;-86
2022/09/01 08:31:41;;;;;;;26.42;24.83;;;32.90;1.00;;;;;;4898562;29;20226;-89
2022/09/01 08:34:12;;;;;;;32.38;30.45;;;32.80;1.00;;;;;;4911312;29;20206;-92
2022/09/01 08:36:47;;;;;;;28.45;26.77;;;33.10;1.00;;;;;;4922208;29;20241;-92
2022/09/01 08:39:27;;;;;;;27.58;25.90;;;33.30;1.00;;;;;;4918564;29;20189;-90
2022/09/01 08:42:11;;;;;;;27.80;25.90;;;33.30;1.00;;;;;;4903453;29;20199;-91
2022/09/01 08:44:52;;;;;;;30.05;28.25;;;33.20;1.00;;;;;;4901015;29;20207;-87
2022/09/01 08:47:28;;;;;;;26.92;25.30;;;33.00;1.00;;;;;;4878707;29;20202;-93
2022/09/01 08:50:09;;;;;;;26.75;25.10;;;33.40;1.00;;;;;;4911780;29;20201;-92
2022/09/01 08:52:42;;;;;;;25.58;24.08;;;33.90;1.00;;;;;;4918725;29;20182;-87
2022/09/01 08:55:24;;;;;;;27.27;25.70;;;33.90;1.00;;;;;;4920914;29;20202;-91
2022/09/01 08:58:03;;;;;;;26.70;25.20;;;33.50;1.00;;;;;;4921437;29;20400;-91
2022/09/01 09:01:06;;;;;;;26.23;24.73;;;33.50;1.00;;;;;;4919306;29;20197;-91
2022/09/01 09:03:55;;;;;;;24.27;22.88;;;33.90;1.00;;;;;;4921726;29;20201;-88
2022/09/01 09:06:43;;;;;;;24.05;22.65;;;34.10;1.00;;;;;;4921872;29;20202;-92
2022/09/01 09:09:11;;;;;;;26.65;25.15;;;34.10;1.00;;;;;;4882920;29;20207;-90
2022/09/01 09:12:10;;;;;;;27.48;25.90;;;33.90;1.00;;;;;;4895787;29;20255;-89
2022/09/01 09:14:59;;;;;;;29.35;27.65;;;33.70;1.00;;;;;;4885122;29;20288;-90
2022/09/01 09:17:35;;;;;;;26.77;25.25;;;34.20;1.00;;;;;;4902516;29;20222;-93
2022/09/01 09:20:10;;;;;;;25.40;23.92;;;34.30;1.00;;;;;;4902853;29;20239;-94
2022/09/01 09:22:49;;;;;;;24.42;23.02;;;33.20;1.00;;;;;;4902758;29;20594;-92
2022/09/01 09:25:23;;;;;;;11.23;10.52;;;32.20;1.00;;;;;;4902243;29;20202;-92
2022/09/01 09:28:01;;;;;;;5.47;5.05;;;31.30;1.00;;;;;;4902890;29;20210;-93
2022/09/01 09:30:31;;;;;;;31.20;8.95;;;30.50;1.00;;;;;;4898306;29;20297;-94
2022/09/01 09:33:11;;;;;;;44.50;11.80;;;29.60;1.00;;;;;;4898074;29;20324;-92
2022/09/01 09:35:53;;;;;;;114.25;26.48;;;28.50;1.00;;;;;;4914860;29;20255;-92
2022/09/01 09:38:31;;;;;;;157.20;36.35;;;27.50;1.00;;;;;;4901703;29;20213;-91
2022/09/01 09:41:06;;;;;;;146.95;35.13;;;26.60;1.00;;;;;;4916006;29;20216;-91
2022/09/01 09:43:43;;;;;;;133.88;33.50;;;25.90;1.00;;;;;;4916472;29;20227;-92
2022/09/01 09:46:36;;;;;;;137.85;35.00;;;25.30;1.00;;;;;;4902189;29;20221;-91
2022/09/01 09:49:34;;;;;;;125.35;33.17;;;24.90;1.00;;;;;;4902193;29;20272;-91
2022/09/01 09:52:22;;;;;;;115.43;32.53;;;24.50;1.00;;;;;;4905639;29;20195;-91
2022/09/01 09:55:05;;;;;;;106.90;31.75;;;24.10;1.00;;;;;;4907162;29;20240;-91
2022/09/01 09:57:40;;;;;;;96.72;30.80;;;23.80;1.00;;;;;;4890693;29;20237;-90
2022/09/01 10:00:29;;;;;;;94.28;30.63;;;23.50;1.00;;;;;;4901659;29;20220;-93
2022/09/01 10:03:07;;;;;;;93.80;30.50;;;23.10;1.00;;;;;;4901611;29;20224;-91
2022/09/01 10:05:46;;;;;;;93.95;30.42;;;23.00;1.00;;;;;;4918368;29;20208;-93
2022/09/01 10:11:45;;;;;;;90.38;30.10;;;22.60;1.00;;;;;;4893261;29;20236;-90
2022/09/01 10:14:30;;;;;;;84.25;29.25;;;22.40;1.00;;;;;;4900523;29;20211;-92
2022/09/01 10:17:05;;;;;;;80.05;29.00;;;22.10;1.00;;;;;;4900634;29;20234;-90
2022/09/01 10:19:34;;;;;;;79.20;28.83;;;21.90;1.00;;;;;;4882725;29;20220;-91
2022/09/01 10:22:06;;;;;;;75.72;28.48;;;21.70;1.00;;;;;;4884742;29;20207;-90
2022/09/01 10:24:37;;;;;;;75.30;28.38;;;21.60;1.00;;;;;;4900865;29;20588;-91
2022/09/01 10:27:15;;;;;;;76.35;28.45;;;21.50;1.00;;;;;;4901595;29;20193;-90
2022/09/01 10:30:06;;;;;;;76.90;28.63;;;21.60;1.00;;;;;;4901519;29;20186;-92
2022/09/01 10:33:08;;;;;;;;;;;;;;;;;;;;;
2022/09/01 10:36:22;;;;;;;78.75;28.88;;;21.90;1.00;;;;;;4920352;29;20220;-91
2022/09/01 10:39:06;;;;;;;78.00;28.85;;;22.00;1.00;;;;;;4920471;29;20214;-92
2022/09/01 10:42:21;;;;;;;77.85;28.67;;;21.90;1.00;;;;;;4910196;29;20220;-89
2022/09/01 10:50:49;;;;;;;78.13;28.58;;;21.60;1.00;;;;;;4917820;29;20201;-91
2022/09/01 10:53:42;;;;;;;78.03;28.60;;;21.60;1.00;;;;;;4900421;29;20260;-94
2022/09/01 10:56:13;;;;;;;75.78;28.23;;;21.60;1.00;;;;;;4872215;29;20237;-87
2022/09/01 10:59:10;;;;;;;73.88;28.15;;;21.40;1.00;;;;;;4870279;29;20204;-92
2022/09/01 11:02:19;;;;;;;70.10;27.60;;;21.30;1.00;;;;;;4901717;29;20272;-93
2022/09/01 11:05:13;;;;;;;65.97;27.00;;;21.20;1.00;;;;;;4868791;29;20232;-87
2022/09/01 11:07:40;;;;;;;66.78;27.17;;;21.00;1.00;;;;;;4867712;29;20228;-88
2022/09/01 11:10:40;;;;;;;62.92;26.42;;;20.90;1.00;;;;;;4895299;29;20188;-91
2022/09/01 11:13:51;;;;;;;67.10;27.25;;;20.80;1.00;;;;;;4897839;29;20194;-94
2022/09/01 11:17:00;;;;;;;63.67;26.67;;;20.80;1.00;;;;;;4898489;29;20204;-89
2022/09/01 11:19:57;;;;;;;53.55;24.95;;;20.70;1.00;;;;;;4866395;29;20210;-92
2022/09/01 11:25:58;;;;;;;34.60;20.60;;;20.30;1.00;;;;;;4847900;29;20191;-89
2022/09/01 11:28:47;;;;;;;24.13;17.40;;;20.00;1.00;;;;;;4846992;29;20199;-91
2022/09/01 11:31:41;;;;;;;22.88;17.02;;;19.70;1.00;;;;;;4867792;29;20191;-92
2022/09/01 11:37:31;;;;;;;21.40;16.25;;;19.50;1.00;;;;;;4902840;29;20234;-93
2022/09/01 11:40:06;;;;;;;25.90;18.17;;;19.40;1.00;;;;;;4888806;29;20639;-92
2022/09/01 11:42:51;;;;;;;25.85;18.15;;;19.40;1.00;;;;;;4870095;29;20207;-92
2022/09/01 11:45:33;;;;;;;25.13;17.75;;;19.50;1.00;;;;;;4902794;29;20209;-90
2022/09/01 11:48:05;;;;;;;26.05;18.23;;;19.60;1.00;;;;;;4898017;29;20281;-85
2022/09/01 11:50:49;;;;;;;25.92;18.02;;;19.70;1.00;;;;;;4899151;29;20693;-91
2022/09/01 11:53:33;;;;;;;26.63;18.33;;;19.80;1.00;;;;;;4899991;29;20249;-92
2022/09/01 11:56:21;;;;;;;27.02;18.48;;;19.80;1.00;;;;;;4879173;29;20258;-96
2022/09/01 12:02:59;;;;;;;26.33;18.33;;;20.00;1.00;;;;;;4885565;29;20186;-90
2022/09/01 12:06:08;;;;;;;27.10;18.75;;;20.10;1.00;;;;;;4885323;29;20216;-92
2022/09/01 12:09:00;;;;;;;17.27;14.95;;;20.20;1.00;;;;;;4881336;29;20188;-91
2022/09/01 12:11:50;;;;;;;26.40;18.33;;;20.50;1.00;;;;;;4828392;29;20216;-91
2022/09/01 12:14:27;;;;;;;29.40;19.42;;;20.70;1.00;;;;;;4880190;29;20273;-92
2022/09/01 12:17:00;;;;;;;31.42;20.13;;;20.80;1.00;;;;;;4904690;29;20230;-91
2022/09/01 12:19:41;;;;;;;33.40;20.45;;;20.90;1.00;;;;;;4903947;29;20264;-89
2022/09/01 12:22:20;;;;;;;36.67;21.30;;;21.20;1.00;;;;;;4903674;29;20188;-93
2022/09/01 12:25:11;;;;;;;36.88;21.50;;;21.30;1.00;;;;;;4903734;29;20209;-90
2022/09/01 12:27:41;;;;;;;42.53;22.77;;;21.60;1.00;;;;;;4895646;29;20256;-91
2022/09/01 12:30:21;;;;;;;43.10;22.90;;;21.80;1.00;;;;;;4921531;29;20192;-92
2022/09/01 12:33:04;;;;;;;44.10;23.17;;;22.20;1.00;;;;;;4905667;29;20217;-91
2022/09/01 12:35:41;;;;;;;44.22;23.15;;;22.20;1.00;;;;;;4911572;29;20228;-89
2022/09/01 12:38:50;;;;;;;44.78;23.48;;;22.40;1.00;;;;;;4922353;29;20206;-91
2022/09/01 12:41:42;;;;;;;43.15;22.83;;;22.40;1.00;;;;;;4840219;29;20204;-94
2022/09/01 12:44:45;;;;;;;44.70;23.38;;;22.30;1.00;;;;;;4911834;29;20206;-91
2022/09/01 12:47:52;;;;;;;45.42;23.48;;;22.30;1.00;;;;;;4913726;29;20212;-91
2022/09/01 12:50:49;;;;;;;44.70;23.38;;;22.40;1.00;;;;;;4903569;29;20236;-92
2022/09/01 12:53:28;;;;;;;42.97;22.83;;;22.50;1.00;;;;;;4884364;29;20223;-91
2022/09/01 12:56:23;;;;;;;42.58;22.85;;;22.50;1.00;;;;;;4884238;29;20223;-88
2022/09/01 12:59:27;;;;;;;;;;;;;;;;;;;;;
2022/09/01 13:01:54;;;;;;;43.25;23.05;;;22.30;1.00;;;;;;4883614;29;20182;-87
2022/09/01 13:04:32;;;;;;;43.80;23.17;;;22.30;1.00;;;;;;4895762;29;20194;-93
2022/09/01 13:07:07;;;;;;;42.55;22.65;;;22.30;1.00;;;;;;4902455;29;20206;-93
2022/09/01 13:09:34;;;;;;;44.88;23.38;;;22.40;1.00;;;;;;4883036;29;20213;-87
2022/09/01 13:12:20;;;;;;;44.22;23.27;;;22.40;1.00;;;;;;4900021;29;20232;-91
2022/09/01 13:14:49;;;;;;;41.97;22.55;;;22.50;1.00;;;;;;4887631;29;20196;-90
2022/09/01 13:17:17;;;;;;;41.33;22.42;;;22.30;1.00;;;;;;4894967;29;20206;-87
2022/09/01 13:19:44;;;;;;;44.28;23.20;;;22.10;1.00;;;;;;4892723;29;20201;-90
2022/09/01 13:22:21;;;;;;;44.40;23.15;;;22.00;1.00;;;;;;4895379;29;20190;-90
2022/09/01 13:24:51;;;;;;;44.65;23.30;;;22.10;1.00;;;;;;4887608;29;20279;-91
2022/09/01 13:27:20;;;;;;;44.10;23.13;;;22.20;1.00;;;;;;4897195;29;20719;-87
2022/09/01 13:33:00;;;;;;;43.78;23.02;;;22.40;1.00;;;;;;4890001;29;20187;-91
2022/09/01 13:35:27;;;;;;;44.72;23.20;;;22.40;1.00;;;;;;4887586;29;20269;-86
2022/09/01 13:37:57;;;;;;;44.28;23.17;;;22.50;1.00;;;;;;4894917;29;20746;-91
2022/09/01 13:40:24;;;;;;;45.00;23.38;;;22.60;1.00;;;;;;4888761;29;20532;-91
2022/09/01 13:42:53;;;;;;;44.88;23.25;;;22.70;1.00;;;;;;4880753;29;20202;-87
2022/09/01 13:45:23;;;;;;;44.65;23.33;;;22.70;1.00;;;;;;4892664;29;20234;-88
2022/09/01 13:47:51;;;;;;;43.88;23.17;;;22.80;1.00;;;;;;4885186;29;20271;-90
2022/09/01 13:50:28;;;;;;;42.83;22.88;;;23.00;1.00;;;;;;4890292;29;20203;-88
2022/09/01 13:52:58;;;;;;;43.58;23.08;;;23.30;1.00;;;;;;4886032;29;20219;-92
2022/09/01 13:55:35;;;;;;;39.83;22.20;;;23.40;1.00;;;;;;4890844;29;20653;-93
2022/09/01 13:58:37;;;;;;;41.15;22.52;;;23.70;1.00;;;;;;4907154;29;20246;-91
2022/09/01 14:01:15;;;;;;;43.15;23.02;;;23.80;1.00;;;;;;4909766;29;20181;-93
2022/09/01 14:03:53;;;;;;;47.58;24.00;;;23.90;1.00;;;;;;4891525;29;20211;-92
2022/09/01 14:09:14;;;;;;;48.50;24.35;;;24.10;1.00;;;;;;4896629;29;20207;-93
2022/09/01 14:11:45;;;;;;;49.70;24.50;;;24.10;1.00;;;;;;4915002;29;20204;-88
2022/09/01 14:14:13;;;;;;;47.90;24.02;;;24.10;1.00;;;;;;4891430;29;20208;-88
2022/09/01 14:16:41;;;;;;;45.20;23.48;;;24.10;1.00;;;;;;4878669;29;20209;-87
2022/09/01 14:19:08;;;;;;;45.00;23.33;;;23.90;1.00;;;;;;4886714;29;20678;-88
2022/09/01 14:21:36;;;;;;;47.28;23.83;;;23.60;1.00;;;;;;4893172;29;20208;-88